Time;durP1;ratioP1;P1;durP2;ratioP2;P2;SDS_P1;SDS_P2;PMS_P1;PMS_P2;Temp;Humidity;BMP_temperature;BMP_pressure;BME280_temperature;BME280_humidity;BME280_pressure;Samples;Min_cycle;Max_cycle;Signal;HPM_P1;HPM_P2
2022/12/07 00:01:38;;;;;;;52.92;33.50;;;;;;;;;;4994345;28;20574;-43
2022/12/07 00:04:05;;;;;;;57.80;31.60;;;;;;;;;;5001304;28;20183;-43
2022/12/07 00:06:32;;;;;;;54.60;32.63;;;;;;;;;;5008256;28;20192;-43
2022/12/07 00:08:58;;;;;;;50.08;29.30;;;;;;;;;;5009220;28;20549;-43
2022/12/07 00:11:24;;;;;;;57.15;31.80;;;;;;;;;;5000642;28;20690;-43
2022/12/07 00:13:54;;;;;;;60.70;32.57;;;;;;;;;;5006793;28;20188;-43
2022/12/07 00:16:21;;;;;;;54.13;30.77;;;;;;;;;;4993985;28;20404;-43
2022/12/07 00:18:48;;;;;;;50.47;30.67;;;;;;;;;;5000380;28;20184;-43
2022/12/07 00:21:16;;;;;;;59.20;33.50;;;;;;;;;;5000312;28;20181;-44
2022/12/07 00:23:42;;;;;;;61.70;34.95;;;;;;;;;;5001627;28;20650;-43
2022/12/07 00:26:10;;;;;;;56.97;30.67;;;;;;;;;;5003614;28;20199;-42
2022/12/07 00:28:36;;;;;;;56.22;30.25;;;;;;;;;;5002090;28;20180;-44
2022/12/07 00:31:03;;;;;;;49.47;28.53;;;;;;;;;;5004737;28;20224;-43
2022/12/07 00:33:29;;;;;;;51.03;28.75;;;;;;;;;;5002829;28;20407;-43
2022/12/07 00:35:56;;;;;;;51.57;29.27;;;;;;;;;;4997014;28;20545;-43
2022/12/07 00:38:22;;;;;;;58.00;33.33;;;;;;;;;;5003660;28;20487;-43
2022/12/07 00:40:54;;;;;;;56.27;29.80;;;;;;;;;;5001993;28;20416;-43
2022/12/07 00:43:20;;;;;;;46.88;29.05;;;;;;;;;;5000066;28;20411;-43
2022/12/07 00:45:46;;;;;;;49.80;28.77;;;;;;;;;;5001467;28;20212;-42
2022/12/07 00:48:12;;;;;;;51.13;29.07;;;;;;;;;;5001590;28;20497;-43
2022/12/07 00:50:38;;;;;;;54.97;29.87;;;;;;;;;;4998421;28;20558;-43
2022/12/07 00:53:04;;;;;;;49.03;30.67;;;;;;;;;;5007698;28;20420;-42
2022/12/07 00:55:33;;;;;;;60.40;34.00;;;;;;;;;;5005665;28;20404;-43
2022/12/07 00:57:59;;;;;;;52.30;29.65;;;;;;;;;;4999820;28;20446;-43
2022/12/07 01:00:25;;;;;;;50.07;28.60;;;;;;;;;;5003535;28;20180;-43
2022/12/07 01:02:51;;;;;;;55.42;29.95;;;;;;;;;;5001362;28;20775;-43
2022/12/07 01:05:17;;;;;;;56.53;29.20;;;;;;;;;;5000346;28;20546;-43
2022/12/07 01:07:43;;;;;;;53.10;30.17;;;;;;;;;;5000741;28;20196;-43
2022/12/07 01:10:09;;;;;;;53.53;30.00;;;;;;;;;;5005409;28;20551;-43
2022/12/07 01:12:35;;;;;;;54.03;29.00;;;;;;;;;;5004763;28;20490;-43
2022/12/07 01:15:01;;;;;;;64.20;31.07;;;;;;;;;;4998429;28;20219;-43
2022/12/07 01:17:28;;;;;;;51.17;29.40;;;;;;;;;;4997875;28;20439;-42
2022/12/07 01:19:54;;;;;;;51.83;30.10;;;;;;;;;;5002468;28;20189;-42
2022/12/07 01:22:20;;;;;;;53.67;32.30;;;;;;;;;;5003468;28;20667;-43
2022/12/07 01:24:47;;;;;;;55.40;33.23;;;;;;;;;;5001634;28;20452;-43
2022/12/07 01:27:13;;;;;;;58.28;32.10;;;;;;;;;;4999713;28;20435;-42
2022/12/07 01:29:39;;;;;;;54.10;31.25;;;;;;;;;;5002554;28;20236;-43
2022/12/07 01:32:05;;;;;;;64.27;33.90;;;;;;;;;;4997507;28;20231;-43
2022/12/07 01:34:31;;;;;;;53.88;30.10;;;;;;;;;;4999035;28;20471;-43
2022/12/07 01:36:58;;;;;;;68.40;32.57;;;;;;;;;;5006255;28;20607;-43
2022/12/07 01:39:24;;;;;;;56.33;32.00;;;;;;;;;;5005273;28;20410;-43
2022/12/07 01:41:50;;;;;;;61.70;32.63;;;;;;;;;;5005928;28;20179;-43
2022/12/07 01:44:22;;;;;;;61.95;32.58;;;;;;;;;;5004526;28;20672;-43
2022/12/07 01:46:53;;;;;;;55.70;31.15;;;;;;;;;;5005024;28;20788;-43
2022/12/07 01:49:25;;;;;;;63.13;33.92;;;;;;;;;;5001271;28;20177;-43
2022/12/07 01:51:52;;;;;;;54.80;32.30;;;;;;;;;;5009087;28;20192;-43
2022/12/07 01:54:19;;;;;;;72.88;32.42;;;;;;;;;;5005871;28;20259;-43
2022/12/07 01:56:48;;;;;;;61.83;33.45;;;;;;;;;;5001544;28;20540;-43
2022/12/07 01:59:15;;;;;;;63.53;33.75;;;;;;;;;;5003231;28;20181;-43
2022/12/07 02:01:41;;;;;;;56.58;33.40;;;;;;;;;;5002738;28;20187;-43
2022/12/07 02:04:07;;;;;;;61.80;32.77;;;;;;;;;;5002677;28;20173;-43
2022/12/07 02:06:34;;;;;;;58.67;31.60;;;;;;;;;;5002610;28;20420;-43
2022/12/07 02:09:00;;;;;;;52.60;29.75;;;;;;;;;;4997947;28;20422;-43
2022/12/07 02:11:26;;;;;;;68.40;34.67;;;;;;;;;;5006317;28;20196;-43
2022/12/07 02:13:52;;;;;;;57.67;32.33;;;;;;;;;;4999754;28;20427;-43
2022/12/07 02:16:27;;;;;;;57.90;31.83;;;;;;;;;;5008265;28;20736;-43
2022/12/07 02:19:02;;;;;;;57.20;31.25;;;;;;;;;;5005074;28;20247;-43
2022/12/07 02:21:28;;;;;;;63.67;33.08;;;;;;;;;;5004000;28;20178;-43
2022/12/07 02:24:12;;;;;;;57.23;30.23;;;;;;;;;;5005332;28;20189;-43
2022/12/07 02:27:02;;;;;;;55.60;30.38;;;;;;;;;;4999892;28;20791;-43
2022/12/07 02:29:39;;;;;;;62.45;32.53;;;;;;;;;;5000246;28;20296;-43
2022/12/07 02:32:12;;;;;;;52.90;30.33;;;;;;;;;;4995134;28;20658;-43
2022/12/07 02:34:44;;;;;;;51.13;29.27;;;;;;;;;;5002811;28;20327;-43
2022/12/07 02:37:16;;;;;;;50.40;28.77;;;;;;;;;;5006001;28;20283;-43
2022/12/07 02:39:51;;;;;;;48.78;28.05;;;;;;;;;;5005940;28;20180;-43
2022/12/07 02:42:19;;;;;;;54.55;29.80;;;;;;;;;;5001741;28;20229;-42
2022/12/07 02:44:46;;;;;;;49.83;28.83;;;;;;;;;;4998097;28;20181;-43
2022/12/07 02:47:14;;;;;;;51.92;28.50;;;;;;;;;;5005512;28;20674;-43
2022/12/07 02:49:40;;;;;;;51.03;28.30;;;;;;;;;;5002603;28;20683;-43
2022/12/07 02:52:06;;;;;;;58.83;31.02;;;;;;;;;;5005932;28;20569;-43
2022/12/07 02:54:32;;;;;;;51.83;26.50;;;;;;;;;;5002324;28;20184;-43
2022/12/07 02:57:01;;;;;;;55.03;30.13;;;;;;;;;;5003485;28;20466;-43
2022/12/07 02:59:43;;;;;;;42.92;25.13;;;;;;;;;;5001331;28;20223;-43
2022/12/07 03:02:28;;;;;;;45.15;26.55;;;;;;;;;;4996489;28;20235;-43
2022/12/07 03:05:09;;;;;;;39.10;24.35;;;;;;;;;;5007156;28;20779;-43
2022/12/07 03:07:41;;;;;;;46.75;26.45;;;;;;;;;;5006131;28;20187;-43
2022/12/07 03:10:07;;;;;;;52.00;25.98;;;;;;;;;;4998661;28;20250;-43
2022/12/07 03:12:41;;;;;;;52.63;27.30;;;;;;;;;;5001410;28;20555;-43
2022/12/07 03:15:20;;;;;;;43.00;25.38;;;;;;;;;;4999101;28;20418;-42
2022/12/07 03:17:47;;;;;;;40.97;23.45;;;;;;;;;;5001190;28;20197;-43
2022/12/07 03:20:14;;;;;;;41.25;25.30;;;;;;;;;;5002908;28;20254;-44
2022/12/07 03:22:43;;;;;;;46.83;27.63;;;;;;;;;;5002711;28;20596;-43
2022/12/07 03:25:11;;;;;;;47.85;23.90;;;;;;;;;;5001845;28;20180;-43
2022/12/07 03:27:47;;;;;;;47.42;24.30;;;;;;;;;;5001390;28;20704;-43
2022/12/07 03:30:17;;;;;;;52.75;24.98;;;;;;;;;;5010745;28;20685;-43
2022/12/07 03:32:49;;;;;;;55.00;26.52;;;;;;;;;;5003846;28;20172;-43
2022/12/07 03:35:38;;;;;;;42.33;25.67;;;;;;;;;;5001895;28;20539;-43
2022/12/07 03:38:43;;;;;;;46.92;27.70;;;;;;;;;;4997325;28;20211;-43
2022/12/07 03:41:09;;;;;;;43.58;25.63;;;;;;;;;;4999013;28;20253;-43
2022/12/07 03:43:35;;;;;;;48.80;27.80;;;;;;;;;;5005332;28;20597;-43
2022/12/07 03:46:06;;;;;;;46.42;25.67;;;;;;;;;;4999753;28;20444;-43
2022/12/07 03:48:35;;;;;;;44.15;26.65;;;;;;;;;;5000023;28;20650;-44
2022/12/07 03:51:07;;;;;;;41.65;24.88;;;;;;;;;;5002344;28;20192;-43
2022/12/07 03:53:55;;;;;;;38.90;22.23;;;;;;;;;;5001338;28;20173;-43
2022/12/07 03:56:22;;;;;;;49.30;25.40;;;;;;;;;;5000313;28;20165;-43
2022/12/07 03:58:49;;;;;;;48.28;26.83;;;;;;;;;;5001029;28;20169;-44
2022/12/07 04:01:15;;;;;;;42.42;24.50;;;;;;;;;;5003775;28;20181;-43
2022/12/07 04:03:40;;;;;;;38.60;25.13;;;;;;;;;;5003910;28;20180;-44
2022/12/07 04:06:07;;;;;;;45.97;24.93;;;;;;;;;;4998040;28;20908;-43
2022/12/07 04:08:33;;;;;;;41.92;25.38;;;;;;;;;;5008595;28;20415;-44
2022/12/07 04:10:59;;;;;;;41.70;24.80;;;;;;;;;;5002294;28;20204;-43
2022/12/07 04:13:25;;;;;;;46.07;25.17;;;;;;;;;;5002150;28;20399;-44
2022/12/07 04:15:51;;;;;;;52.03;26.17;;;;;;;;;;5002777;28;20494;-43
2022/12/07 04:18:17;;;;;;;42.33;25.90;;;;;;;;;;5001243;28;20428;-43
2022/12/07 04:20:43;;;;;;;42.93;24.50;;;;;;;;;;5002042;28;20435;-44
2022/12/07 04:23:09;;;;;;;40.77;24.50;;;;;;;;;;5000540;28;20408;-43
2022/12/07 04:25:35;;;;;;;48.67;26.67;;;;;;;;;;5006915;28;20407;-44
2022/12/07 04:28:01;;;;;;;57.07;25.30;;;;;;;;;;5000495;28;20427;-43
2022/12/07 04:30:27;;;;;;;46.63;24.53;;;;;;;;;;5000027;28;20459;-44
2022/12/07 04:32:53;;;;;;;44.47;24.80;;;;;;;;;;5002067;28;20902;-44
2022/12/07 04:35:19;;;;;;;39.97;22.73;;;;;;;;;;5000466;28;20458;-43
2022/12/07 04:37:45;;;;;;;43.07;24.90;;;;;;;;;;5000205;28;20427;-43
2022/12/07 04:40:14;;;;;;;49.28;25.83;;;;;;;;;;5000324;28;20415;-44
2022/12/07 04:42:40;;;;;;;36.63;22.85;;;;;;;;;;5005224;28;20231;-44
2022/12/07 04:45:06;;;;;;;40.00;23.47;;;;;;;;;;4999443;28;20184;-43
2022/12/07 04:47:32;;;;;;;48.88;25.30;;;;;;;;;;4997132;28;20796;-43
2022/12/07 04:49:58;;;;;;;37.97;22.00;;;;;;;;;;5000182;28;20207;-43
2022/12/07 04:52:24;;;;;;;53.33;24.90;;;;;;;;;;5000462;28;20397;-43
2022/12/07 04:54:50;;;;;;;39.27;22.23;;;;;;;;;;5000674;28;20412;-44
2022/12/07 04:57:16;;;;;;;44.03;24.23;;;;;;;;;;5002751;28;20427;-44
2022/12/07 04:59:42;;;;;;;38.03;22.20;;;;;;;;;;4995694;28;20420;-44
2022/12/07 05:02:08;;;;;;;43.27;24.70;;;;;;;;;;5003256;28;20435;-43
2022/12/07 05:04:34;;;;;;;46.23;24.37;;;;;;;;;;4995192;28;20906;-43
2022/12/07 05:06:59;;;;;;;45.22;22.25;;;;;;;;;;5009524;28;20423;-44
2022/12/07 05:09:25;;;;;;;44.83;24.30;;;;;;;;;;5005157;28;20172;-42
2022/12/07 05:11:51;;;;;;;41.23;22.03;;;;;;;;;;5005575;28;20420;-43
2022/12/07 05:14:19;;;;;;;46.63;22.60;;;;;;;;;;5013314;28;20434;-43
2022/12/07 05:16:46;;;;;;;51.60;23.35;;;;;;;;;;5000209;28;20428;-43
2022/12/07 05:19:12;;;;;;;36.92;21.88;;;;;;;;;;4995732;28;20188;-43
2022/12/07 05:21:38;;;;;;;40.70;20.77;;;;;;;;;;4997212;28;20657;-44
2022/12/07 05:24:05;;;;;;;40.70;22.65;;;;;;;;;;5014071;28;20172;-43
2022/12/07 05:26:31;;;;;;;41.40;23.55;;;;;;;;;;4995003;28;20251;-43
2022/12/07 05:28:57;;;;;;;39.83;22.25;;;;;;;;;;4992338;28;20176;-44
2022/12/07 05:31:23;;;;;;;44.60;24.10;;;;;;;;;;5006941;28;20273;-43
2022/12/07 05:33:49;;;;;;;36.90;22.25;;;;;;;;;;5004285;28;20189;-43
2022/12/07 05:36:15;;;;;;;45.13;23.03;;;;;;;;;;5002535;28;20180;-43
2022/12/07 05:38:41;;;;;;;37.80;22.02;;;;;;;;;;5007305;28;20445;-43
2022/12/07 05:42:11;;;;;;;41.17;24.55;;;;;;;;;;4995144;28;20219;-43
2022/12/07 05:43:54;;;;;;;36.92;22.38;;;;;;;;;;5004553;28;20192;-43
2022/12/07 05:46:20;;;;;;;43.72;23.65;;;;;;;;;;5010112;28;20207;-43
2022/12/07 05:48:46;;;;;;;42.13;22.47;;;;;;;;;;5003949;28;20180;-43
2022/12/07 05:51:12;;;;;;;52.00;24.73;;;;;;;;;;5001321;28;20549;-43
2022/12/07 05:53:39;;;;;;;47.03;23.77;;;;;;;;;;4998185;28;20415;-44
2022/12/07 05:56:05;;;;;;;49.35;25.00;;;;;;;;;;5004999;28;20451;-43
2022/12/07 06:01:17;;;;;;;45.28;22.83;;;;;;;;;;4996007;28;20250;-44
2022/12/07 06:03:44;;;;;;;42.90;22.67;;;;;;;;;;5003013;28;20211;-43
2022/12/07 06:06:10;;;;;;;46.00;23.77;;;;;;;;;;5002859;28;20184;-44
2022/12/07 06:08:36;;;;;;;41.93;23.77;;;;;;;;;;5003153;28;20180;-44
2022/12/07 06:13:47;;;;;;;43.10;23.85;;;;;;;;;;5007592;28;20414;-44
2022/12/07 06:16:13;;;;;;;46.33;23.20;;;;;;;;;;5002884;28;20172;-43
2022/12/07 06:18:42;;;;;;;43.13;24.50;;;;;;;;;;4959202;28;1161240;-43
2022/12/07 06:21:08;;;;;;;39.05;23.08;;;;;;;;;;5002720;28;20491;-43
2022/12/07 06:23:34;;;;;;;42.17;24.43;;;;;;;;;;5001099;28;20192;-44
2022/12/07 06:25:59;;;;;;;43.93;24.90;;;;;;;;;;4994028;28;20412;-43
2022/12/07 06:28:25;;;;;;;44.13;24.73;;;;;;;;;;5002362;28;20424;-43
2022/12/07 06:31:01;;;;;;;38.57;22.10;;;;;;;;;;5006046;28;20462;-43
2022/12/07 06:33:28;;;;;;;44.63;20.92;;;;;;;;;;5001959;28;20446;-43
2022/12/07 06:35:54;;;;;;;42.05;22.73;;;;;;;;;;5005136;28;20235;-43
2022/12/07 06:38:19;;;;;;;36.30;22.20;;;;;;;;;;5005471;28;20566;-43
2022/12/07 06:40:45;;;;;;;41.90;22.43;;;;;;;;;;5003107;28;20499;-43
2022/12/07 06:43:11;;;;;;;44.30;21.60;;;;;;;;;;5008424;28;20408;-44
2022/12/07 06:45:37;;;;;;;33.80;22.10;;;;;;;;;;5002503;28;20415;-44
2022/12/07 06:48:03;;;;;;;36.23;22.20;;;;;;;;;;5003612;28;20440;-44
2022/12/07 06:50:29;;;;;;;39.77;22.80;;;;;;;;;;5001882;28;21014;-43
2022/12/07 06:52:55;;;;;;;37.47;22.40;;;;;;;;;;5002713;28;20772;-43
2022/12/07 06:55:21;;;;;;;36.63;21.40;;;;;;;;;;5005555;28;20879;-43
2022/12/07 06:57:47;;;;;;;33.77;19.87;;;;;;;;;;5001037;28;20440;-43
2022/12/07 07:00:13;;;;;;;32.67;20.17;;;;;;;;;;5003027;28;20502;-43
2022/12/07 07:02:39;;;;;;;30.77;20.90;;;;;;;;;;5003037;28;20823;-43
2022/12/07 07:05:07;;;;;;;36.63;20.20;;;;;;;;;;5002140;28;20273;-42
2022/12/07 07:07:33;;;;;;;33.40;22.05;;;;;;;;;;5004326;28;20442;-43
2022/12/07 07:09:59;;;;;;;34.53;19.93;;;;;;;;;;5006912;28;20204;-43
2022/12/07 07:12:25;;;;;;;31.27;19.97;;;;;;;;;;5000740;28;20924;-43
2022/12/07 07:14:51;;;;;;;30.27;19.70;;;;;;;;;;5003043;28;20487;-43
2022/12/07 07:17:17;;;;;;;33.50;18.98;;;;;;;;;;5005635;28;20485;-43
2022/12/07 07:19:43;;;;;;;31.30;17.90;;;;;;;;;;5004240;28;20511;-43
2022/12/07 07:22:09;;;;;;;29.42;18.50;;;;;;;;;;5000804;28;20177;-43
2022/12/07 07:24:35;;;;;;;33.80;17.50;;;;;;;;;;5001533;28;20645;-42
2022/12/07 07:27:02;;;;;;;34.37;19.30;;;;;;;;;;5001567;28;20507;-42
2022/12/07 07:29:28;;;;;;;37.50;19.98;;;;;;;;;;4998402;28;20429;-44
2022/12/07 07:31:54;;;;;;;36.50;19.73;;;;;;;;;;4996974;28;20188;-43
2022/12/07 07:34:20;;;;;;;29.33;17.77;;;;;;;;;;5004719;28;20412;-43
2022/12/07 07:36:47;;;;;;;34.47;18.50;;;;;;;;;;5002160;28;20440;-43
2022/12/07 07:39:13;;;;;;;33.30;18.00;;;;;;;;;;5003761;28;20454;-43
2022/12/07 07:41:39;;;;;;;31.43;17.80;;;;;;;;;;5001793;28;20465;-43
2022/12/07 07:44:05;;;;;;;34.15;18.50;;;;;;;;;;5003842;28;20413;-44
2022/12/07 07:46:32;;;;;;;31.17;17.73;;;;;;;;;;5001387;28;20223;-43
2022/12/07 07:48:58;;;;;;;32.55;17.55;;;;;;;;;;5001246;28;20401;-44
2022/12/07 07:51:24;;;;;;;33.40;20.43;;;;;;;;;;5005576;28;20204;-44
2022/12/07 07:53:50;;;;;;;34.93;16.50;;;;;;;;;;5000699;28;20465;-44
2022/12/07 07:56:16;;;;;;;33.37;19.40;;;;;;;;;;5001306;28;20906;-43
2022/12/07 07:58:42;;;;;;;30.30;19.50;;;;;;;;;;5001890;28;20412;-43
2022/12/07 08:01:09;;;;;;;34.70;18.00;;;;;;;;;;5000889;28;20404;-43
2022/12/07 08:03:34;;;;;;;27.95;17.13;;;;;;;;;;5000735;28;20420;-44
2022/12/07 08:06:02;;;;;;;27.93;18.50;;;;;;;;;;5006719;28;20180;-45
2022/12/07 08:08:28;;;;;;;26.60;16.35;;;;;;;;;;5004243;28;20454;-43
2022/12/07 08:10:54;;;;;;;27.17;17.60;;;;;;;;;;4998782;28;20674;-43
2022/12/07 08:13:20;;;;;;;28.00;16.00;;;;;;;;;;4999261;28;20436;-43
2022/12/07 08:15:47;;;;;;;24.17;15.25;;;;;;;;;;5001791;28;20443;-43
2022/12/07 08:18:14;;;;;;;30.13;17.20;;;;;;;;;;5003838;28;20192;-43
2022/12/07 08:20:40;;;;;;;28.42;16.67;;;;;;;;;;5001862;28;20309;-44
2022/12/07 08:23:07;;;;;;;26.98;16.58;;;;;;;;;;5003988;28;20177;-44
2022/12/07 08:25:34;;;;;;;25.02;15.80;;;;;;;;;;5003977;28;20184;-43
2022/12/07 08:28:00;;;;;;;24.05;14.45;;;;;;;;;;4996683;28;20242;-44
2022/12/07 08:30:27;;;;;;;22.02;15.23;;;;;;;;;;5003681;28;20283;-43
2022/12/07 08:32:53;;;;;;;21.38;13.25;;;;;;;;;;5001951;28;20719;-43
2022/12/07 08:35:19;;;;;;;27.95;15.07;;;;;;;;;;5002442;28;20204;-43
2022/12/07 08:37:45;;;;;;;22.07;13.97;;;;;;;;;;5001314;28;20231;-43
2022/12/07 08:40:15;;;;;;;28.98;15.23;;;;;;;;;;5001776;28;20412;-43
2022/12/07 08:42:44;;;;;;;21.50;13.10;;;;;;;;;;5001389;28;20704;-42
2022/12/07 08:45:12;;;;;;;19.63;13.48;;;;;;;;;;4999990;28;20185;-43
2022/12/07 08:47:41;;;;;;;26.95;14.93;;;;;;;;;;5006121;28;20287;-43
2022/12/07 08:50:07;;;;;;;23.27;13.60;;;;;;;;;;5000960;28;20200;-43
2022/12/07 08:52:34;;;;;;;26.25;14.77;;;;;;;;;;4998830;28;20721;-43
2022/12/07 08:55:00;;;;;;;29.70;16.00;;;;;;;;;;5001521;28;20305;-43
2022/12/07 08:57:28;;;;;;;25.20;14.60;;;;;;;;;;4999670;28;20734;-44
2022/12/07 08:59:54;;;;;;;20.85;13.43;;;;;;;;;;5002751;28;20203;-43
2022/12/07 09:02:19;;;;;;;24.93;13.70;;;;;;;;;;5003844;28;20651;-44
2022/12/07 09:04:45;;;;;;;26.63;14.37;;;;;;;;;;5004632;28;20419;-42
2022/12/07 09:07:11;;;;;;;22.73;14.20;;;;;;;;;;4999752;28;20437;-43
2022/12/07 09:09:37;;;;;;;22.43;14.50;;;;;;;;;;4997330;28;20420;-43
2022/12/07 09:12:04;;;;;;;25.60;14.97;;;;;;;;;;5003372;28;20412;-43
2022/12/07 09:14:29;;;;;;;25.80;14.15;;;;;;;;;;5002383;28;20490;-43
2022/12/07 09:16:55;;;;;;;27.60;15.20;;;;;;;;;;4990708;28;20757;-43
2022/12/07 09:19:21;;;;;;;24.20;13.80;;;;;;;;;;4997921;28;20419;-43
2022/12/07 09:21:47;;;;;;;23.00;13.57;;;;;;;;;;4997506;28;20427;-43
2022/12/07 09:24:14;;;;;;;25.70;14.20;;;;;;;;;;4998886;28;20542;-43
2022/12/07 09:26:40;;;;;;;20.60;13.15;;;;;;;;;;5006977;28;20478;-43
2022/12/07 09:29:06;;;;;;;21.92;14.43;;;;;;;;;;5002556;28;20247;-43
2022/12/07 09:31:32;;;;;;;16.40;12.27;;;;;;;;;;5009222;28;20288;-42
2022/12/07 09:33:59;;;;;;;22.63;12.43;;;;;;;;;;5010547;28;20423;-41
2022/12/07 09:36:25;;;;;;;25.48;13.50;;;;;;;;;;4994094;28;20935;-43
2022/12/07 09:38:51;;;;;;;21.70;12.40;;;;;;;;;;5001272;28;20585;-43
2022/12/07 09:41:17;;;;;;;17.60;12.17;;;;;;;;;;4999615;28;20478;-43
2022/12/07 09:43:43;;;;;;;24.03;12.87;;;;;;;;;;5005974;28;20422;-43
2022/12/07 09:46:14;;;;;;;22.73;13.77;;;;;;;;;;5000525;28;20426;-43
2022/12/07 09:48:40;;;;;;;21.40;13.50;;;;;;;;;;4998003;28;20177;-43
2022/12/07 09:51:23;;;;;;;23.50;13.80;;;;;;;;;;5000463;28;20447;-43
2022/12/07 09:53:49;;;;;;;27.47;16.27;;;;;;;;;;5000337;28;20927;-43
2022/12/07 09:56:17;;;;;;;24.83;16.17;;;;;;;;;;5002962;28;20413;-43
2022/12/07 09:58:44;;;;;;;29.30;17.53;;;;;;;;;;5004337;28;20780;-43
2022/12/07 10:01:12;;;;;;;30.45;16.95;;;;;;;;;;5004181;28;20429;-42
2022/12/07 10:03:40;;;;;;;24.63;16.87;;;;;;;;;;5005980;28;20216;-43
2022/12/07 10:06:07;;;;;;;25.17;16.20;;;;;;;;;;4998565;28;20412;-43
2022/12/07 10:08:33;;;;;;;29.20;18.43;;;;;;;;;;4998620;28;20427;-43
2022/12/07 10:11:03;;;;;;;27.20;17.77;;;;;;;;;;5006014;28;21012;-43
2022/12/07 10:13:36;;;;;;;24.07;16.53;;;;;;;;;;5002987;28;20405;-43
2022/12/07 10:16:02;;;;;;;21.27;16.03;;;;;;;;;;4994851;28;20399;-43
2022/12/07 10:18:33;;;;;;;28.40;16.47;;;;;;;;;;5002567;28;20792;-43
2022/12/07 10:21:03;;;;;;;44.07;17.50;;;;;;;;;;5003260;28;20510;-43
2022/12/07 10:23:30;;;;;;;20.77;14.40;;;;;;;;;;5001836;28;20425;-43
2022/12/07 10:25:56;;;;;;;22.03;12.67;;;;;;;;;;5003077;28;20450;-43
2022/12/07 10:28:24;;;;;;;25.80;12.20;;;;;;;;;;5000819;28;20481;-43
2022/12/07 10:30:56;;;;;;;25.40;13.40;;;;;;;;;;5007812;28;20462;-42
2022/12/07 10:33:29;;;;;;;21.10;13.53;;;;;;;;;;5004871;28;20923;-42
2022/12/07 10:35:55;;;;;;;20.07;12.90;;;;;;;;;;5011406;28;20415;-43
2022/12/07 10:38:21;;;;;;;20.33;12.70;;;;;;;;;;5002566;28;20423;-43
2022/12/07 10:41:02;;;;;;;13.77;10.90;;;;;;;;;;5002392;28;20417;-43
2022/12/07 10:43:28;;;;;;;18.67;10.53;;;;;;;;;;5002268;28;20452;-43
2022/12/07 10:46:06;;;;;;;15.77;11.60;;;;;;;;;;5010650;28;20918;-43
2022/12/07 10:48:32;;;;;;;23.70;12.07;;;;;;;;;;5003760;28;20410;-43
2022/12/07 10:51:04;;;;;;;18.77;8.57;;;;;;;;;;4996386;28;20836;-43
2022/12/07 10:53:33;;;;;;;17.93;9.80;;;;;;;;;;5005509;28;20410;-43
2022/12/07 10:56:18;;;;;;;18.60;10.00;;;;;;;;;;5002172;28;20564;-43
2022/12/07 10:58:51;;;;;;;9.57;8.57;;;;;;;;;;5000914;28;20417;-43
2022/12/07 11:01:28;;;;;;;14.20;8.77;;;;;;;;;;5001663;28;20418;-43
2022/12/07 11:04:03;;;;;;;11.80;8.60;;;;;;;;;;5002632;28;20926;-43
2022/12/07 11:06:44;;;;;;;12.23;7.90;;;;;;;;;;5000422;28;20422;-43
2022/12/07 11:09:28;;;;;;;16.30;9.63;;;;;;;;;;4995232;28;20778;-43
2022/12/07 11:12:05;;;;;;;10.57;8.23;;;;;;;;;;5003499;28;21049;-43
2022/12/07 11:14:44;;;;;;;22.37;9.93;;;;;;;;;;4997865;28;20819;-43
2022/12/07 11:17:16;;;;;;;19.00;10.43;;;;;;;;;;5001000;28;20421;-42
2022/12/07 11:20:11;;;;;;;22.03;10.40;;;;;;;;;;5001764;28;20439;-42
2022/12/07 11:22:42;;;;;;;13.60;9.67;;;;;;;;;;4996969;28;20412;-43
2022/12/07 11:25:11;;;;;;;16.90;8.37;;;;;;;;;;5005647;28;20418;-43
2022/12/07 11:27:45;;;;;;;15.53;9.03;;;;;;;;;;4995109;28;21020;-43
2022/12/07 11:30:14;;;;;;;13.60;8.80;;;;;;;;;;4993278;28;20469;-43
2022/12/07 11:32:59;;;;;;;21.67;8.60;;;;;;;;;;4993387;28;20419;-43
2022/12/07 11:35:42;;;;;;;11.30;8.77;;;;;;;;;;4993105;28;20412;-43
2022/12/07 11:38:12;;;;;;;16.40;9.23;;;;;;;;;;4993071;28;20434;-42
2022/12/07 11:40:39;;;;;;;15.67;9.23;;;;;;;;;;4993172;28;20409;-43
2022/12/07 11:43:14;;;;;;;13.20;8.33;;;;;;;;;;4993443;28;20406;-42
2022/12/07 11:45:45;;;;;;;13.60;8.07;;;;;;;;;;4992972;28;20410;-43
2022/12/07 11:48:10;;;;;;;12.37;7.70;;;;;;;;;;4992762;28;20434;-42
2022/12/07 11:50:39;;;;;;;11.70;7.97;;;;;;;;;;4993054;28;20465;-43
2022/12/07 11:53:14;;;;;;;12.33;7.53;;;;;;;;;;4992997;28;20990;-43
2022/12/07 11:55:52;;;;;;;14.63;7.87;;;;;;;;;;4992692;28;20453;-43
2022/12/07 11:58:34;;;;;;;13.60;6.70;;;;;;;;;;4979369;28;20836;-42
2022/12/07 12:01:15;;;;;;;11.10;7.23;;;;;;;;;;4993151;28;20515;-43
2022/12/07 12:03:44;;;;;;;10.30;6.63;;;;;;;;;;4992866;28;20434;-43
2022/12/07 12:06:10;;;;;;;12.00;8.20;;;;;;;;;;4992502;28;20821;-43
2022/12/07 12:08:40;;;;;;;12.13;7.73;;;;;;;;;;4992621;28;20448;-42
2022/12/07 12:11:09;;;;;;;15.87;8.73;;;;;;;;;;4992429;28;20492;-43
2022/12/07 12:13:47;;;;;;;13.10;8.03;;;;;;;;;;4992639;28;21018;-42
2022/12/07 12:16:25;;;;;;;16.63;7.53;;;;;;;;;;4991818;28;20462;-43
2022/12/07 12:18:54;;;;;;;10.10;7.17;;;;;;;;;;4992327;28;20463;-43
2022/12/07 12:21:22;;;;;;;12.63;5.50;;;;;;;;;;4992542;28;20425;-42
2022/12/07 12:23:51;;;;;;;8.50;5.23;;;;;;;;;;4992477;28;20923;-43
2022/12/07 12:26:22;;;;;;;6.67;4.80;;;;;;;;;;4992189;28;20423;-43
2022/12/07 12:28:58;;;;;;;8.60;4.95;;;;;;;;;;4992272;28;20420;-43
2022/12/07 12:31:24;;;;;;;12.13;5.63;;;;;;;;;;4992223;28;20587;-43
2022/12/07 12:33:52;;;;;;;6.73;4.80;;;;;;;;;;4989719;28;20417;-43
2022/12/07 12:36:20;;;;;;;7.87;4.90;;;;;;;;;;4991569;28;20417;-42
2022/12/07 12:38:58;;;;;;;8.10;4.63;;;;;;;;;;4992416;28;20433;-43
2022/12/07 12:44:14;;;;;;;7.77;4.97;;;;;;;;;;4978832;28;20945;-42
2022/12/07 12:47:01;;;;;;;9.57;4.80;;;;;;;;;;4990238;28;20444;-42
2022/12/07 12:49:30;;;;;;;7.03;4.47;;;;;;;;;;4991781;28;20421;-42
2022/12/07 12:52:03;;;;;;;9.87;5.60;;;;;;;;;;4990285;28;21001;-42
2022/12/07 12:54:33;;;;;;;8.88;5.32;;;;;;;;;;4993219;28;20412;-43
2022/12/07 12:57:05;;;;;;;11.93;8.70;;;;;;;;;;4981114;28;20201;-43
2022/12/07 12:59:32;;;;;;;16.00;9.83;;;;;;;;;;4985628;28;20423;-43
2022/12/07 13:02:18;;;;;;;15.60;9.10;;;;;;;;;;4992000;28;20421;-43
2022/12/07 13:04:55;;;;;;;25.27;10.10;;;;;;;;;;4991914;28;20427;-44
2022/12/07 13:07:40;;;;;;;13.90;8.30;;;;;;;;;;4991463;28;20441;-42
2022/12/07 13:10:22;;;;;;;17.70;9.57;;;;;;;;;;4991829;28;20461;-43
2022/12/07 13:13:02;;;;;;;17.30;7.30;;;;;;;;;;4990197;28;20406;-43
2022/12/07 13:15:37;;;;;;;13.03;6.47;;;;;;;;;;4990532;28;20397;-43
2022/12/07 13:18:23;;;;;;;16.67;7.50;;;;;;;;;;4991314;28;20799;-43
2022/12/07 13:20:50;;;;;;;13.63;7.87;;;;;;;;;;4991596;28;20471;-42
2022/12/07 13:23:24;;;;;;;12.60;6.83;;;;;;;;;;4991624;28;20512;-43
2022/12/07 13:26:13;;;;;;;12.50;7.70;;;;;;;;;;4991630;28;20549;-43
2022/12/07 13:28:42;;;;;;;9.53;6.67;;;;;;;;;;4992169;28;20405;-43
2022/12/07 13:31:14;;;;;;;12.37;7.63;;;;;;;;;;4995308;28;20457;-42
2022/12/07 13:33:40;;;;;;;9.50;6.80;;;;;;;;;;4995051;28;20419;-44
2022/12/07 13:36:13;;;;;;;12.13;6.70;;;;;;;;;;4994756;28;20422;-42
2022/12/07 13:38:41;;;;;;;10.23;7.27;;;;;;;;;;4995698;28;20797;-43
2022/12/07 13:41:09;;;;;;;12.07;6.80;;;;;;;;;;4995230;28;20423;-43
2022/12/07 13:43:43;;;;;;;10.80;7.27;;;;;;;;;;4995139;28;20466;-43
2022/12/07 13:46:14;;;;;;;10.73;7.80;;;;;;;;;;4992928;28;20907;-43
2022/12/07 13:48:49;;;;;;;14.43;7.00;;;;;;;;;;4993070;28;20415;-43
2022/12/07 13:51:20;;;;;;;7.00;6.37;;;;;;;;;;4993121;28;20460;-43
2022/12/07 13:53:50;;;;;;;11.17;6.83;;;;;;;;;;4993249;28;20414;-43
2022/12/07 13:56:16;;;;;;;7.80;5.73;;;;;;;;;;4992749;28;20500;-43
2022/12/07 13:58:42;;;;;;;14.00;6.27;;;;;;;;;;4993100;28;20449;-43
2022/12/07 14:01:08;;;;;;;13.90;6.67;;;;;;;;;;4994377;28;20460;-42
2022/12/07 14:03:36;;;;;;;7.70;5.57;;;;;;;;;;4994941;28;20931;-42
2022/12/07 14:06:07;;;;;;;5.97;5.33;;;;;;;;;;4992096;28;20491;-42
2022/12/07 14:08:33;;;;;;;8.47;5.27;;;;;;;;;;4975794;28;20425;-44
2022/12/07 14:10:59;;;;;;;9.87;5.17;;;;;;;;;;4995249;28;20464;-42
2022/12/07 14:13:28;;;;;;;10.30;5.87;;;;;;;;;;4994627;28;20819;-43
2022/12/07 14:15:54;;;;;;;16.30;7.63;;;;;;;;;;4994609;28;20432;-42
2022/12/07 14:18:28;;;;;;;11.10;7.77;;;;;;;;;;4994474;28;20441;-42
2022/12/07 14:21:04;;;;;;;12.30;7.37;;;;;;;;;;4994744;28;20504;-42
2022/12/07 14:23:30;;;;;;;7.40;4.50;;;;;;;;;;5001533;28;20407;-42
2022/12/07 14:26:04;;;;;;;3.70;3.40;;;;;;;;;;5002506;28;20426;-43
2022/12/07 14:28:32;;;;;;;3.97;2.88;;;;;;;;;;4998657;28;20432;-43
2022/12/07 14:30:58;;;;;;;5.55;4.47;;;;;;;;;;5005127;28;20246;-42
2022/12/07 14:33:24;;;;;;;8.07;4.05;;;;;;;;;;5000813;28;20643;-42
2022/12/07 14:35:54;;;;;;;4.53;4.15;;;;;;;;;;4994319;28;20276;-42
2022/12/07 14:38:21;;;;;;;4.43;4.13;;;;;;;;;;4994005;28;20200;-43
2022/12/07 14:40:47;;;;;;;5.82;5.43;;;;;;;;;;4994077;28;20189;-43